Time;durP1;ratioP1;P1;durP2;ratioP2;P2;SDS_P1;SDS_P2;PMS_P1;PMS_P2;Temp;Humidity;BMP_temperature;BMP_pressure;BME280_temperature;BME280_humidity;BME280_pressure;Samples;Min_cycle;Max_cycle;Signal;HPM_P1;HPM_P2
2021/05/27 00:01:04;;;;;;;7.10;4.53;;;12.40;99.90;;;;;;4125704;28;20525;-80
2021/05/27 00:03:06;;;;;;;8.63;5.57;;;12.50;99.90;;;;;;4124418;28;20633;-80
2021/05/27 00:05:08;;;;;;;12.85;5.30;;;12.40;99.90;;;;;;4125997;28;20038;-81
2021/05/27 00:07:09;;;;;;;6.95;5.28;;;12.40;99.90;;;;;;4125635;28;20049;-80
2021/05/27 00:09:10;;;;;;;8.93;6.18;;;12.40;99.90;;;;;;4125127;28;20406;-80
2021/05/27 00:11:10;;;;;;;7.45;5.60;;;12.40;99.90;;;;;;4110376;28;20539;-81
2021/05/27 00:13:11;;;;;;;11.95;7.60;;;12.40;99.90;;;;;;4127194;28;20053;-81
2021/05/27 00:15:13;;;;;;;11.45;8.48;;;12.50;99.90;;;;;;4125739;28;20034;-80
2021/05/27 00:17:15;;;;;;;10.32;7.05;;;12.40;99.90;;;;;;4127567;28;20042;-81
2021/05/27 00:19:16;;;;;;;9.98;7.35;;;12.50;99.90;;;;;;4125754;28;20502;-81
2021/05/27 00:21:16;;;;;;;14.57;8.93;;;12.40;99.90;;;;;;4126990;28;20041;-81
2021/05/27 00:23:17;;;;;;;10.50;7.63;;;12.40;99.90;;;;;;4125263;28;20450;-81
2021/05/27 00:25:18;;;;;;;13.80;8.07;;;12.50;99.90;;;;;;4126060;28;20042;-81
2021/05/27 00:27:19;;;;;;;9.20;7.45;;;12.50;99.90;;;;;;4125328;28;20042;-81
2021/05/27 00:29:19;;;;;;;10.77;7.35;;;12.50;99.90;;;;;;4109118;28;20050;-81
2021/05/27 00:31:20;;;;;;;11.02;8.15;;;12.50;99.90;;;;;;4125382;28;20132;-81
2021/05/27 00:33:20;;;;;;;11.13;7.40;;;12.50;99.90;;;;;;4109214;28;20086;-81
2021/05/27 00:35:21;;;;;;;14.98;8.98;;;12.50;99.90;;;;;;4141616;28;20049;-80
2021/05/27 00:37:22;;;;;;;6.93;6.20;;;12.40;99.90;;;;;;4109586;28;20039;-80
2021/05/27 00:39:22;;;;;;;10.15;7.38;;;12.50;99.90;;;;;;4125005;28;20487;-80
2021/05/27 00:41:24;;;;;;;9.45;7.32;;;12.50;99.90;;;;;;4127071;28;20042;-81
2021/05/27 00:43:24;;;;;;;9.68;7.32;;;12.60;99.90;;;;;;4124061;28;20051;-81
2021/05/27 00:45:25;;;;;;;12.88;7.47;;;12.50;99.90;;;;;;4127042;28;20053;-80
2021/05/27 00:47:26;;;;;;;12.00;7.35;;;12.50;99.90;;;;;;4125385;28;20138;-80
2021/05/27 00:49:27;;;;;;;11.35;7.63;;;12.50;99.90;;;;;;4109320;28;20090;-80
2021/05/27 00:51:29;;;;;;;9.02;6.65;;;12.50;99.90;;;;;;4141482;28;20066;-80
2021/05/27 00:53:30;;;;;;;10.73;6.88;;;12.60;99.90;;;;;;4121753;28;20455;-80
2021/05/27 00:55:31;;;;;;;9.23;5.93;;;12.50;99.90;;;;;;4125118;28;20043;-81
2021/05/27 00:57:35;;;;;;;12.73;7.32;;;12.60;99.90;;;;;;4125646;28;20478;-80
2021/05/27 00:59:36;;;;;;;7.40;5.20;;;12.60;99.90;;;;;;4108229;28;20031;-80
2021/05/27 01:01:36;;;;;;;9.48;6.45;;;12.60;99.90;;;;;;4124892;28;20057;-80
2021/05/27 01:03:37;;;;;;;6.97;5.65;;;12.60;99.90;;;;;;4098870;28;20088;-80
2021/05/27 01:05:38;;;;;;;8.38;5.68;;;12.60;99.90;;;;;;4118623;28;20037;-80
2021/05/27 01:07:40;;;;;;;7.30;5.45;;;12.60;99.90;;;;;;4125006;28;20117;-80
2021/05/27 01:09:42;;;;;;;8.98;5.32;;;12.60;99.90;;;;;;4124791;28;20030;-80
2021/05/27 01:11:42;;;;;;;8.50;5.40;;;12.60;99.90;;;;;;4109092;28;20030;-80
2021/05/27 01:13:44;;;;;;;12.05;6.13;;;12.60;99.90;;;;;;4124303;28;21307;-80
2021/05/27 01:15:45;;;;;;;7.03;4.65;;;12.60;99.90;;;;;;4115473;28;20487;-80
2021/05/27 01:17:45;;;;;;;13.57;6.68;;;12.60;99.90;;;;;;4124720;28;20110;-80
2021/05/27 01:19:46;;;;;;;13.15;5.85;;;12.60;99.90;;;;;;4126389;28;20046;-80
2021/05/27 01:21:47;;;;;;;9.65;5.30;;;12.50;99.90;;;;;;4124627;28;20058;-81
2021/05/27 01:23:47;;;;;;;9.43;5.05;;;12.50;99.90;;;;;;4125033;28;20027;-81
2021/05/27 01:25:53;;;;;;;10.38;5.03;;;12.60;99.90;;;;;;4108765;28;20035;-80
2021/05/27 01:28:00;;;;;;;6.07;4.35;;;12.60;99.90;;;;;;4124593;28;20043;-80
2021/05/27 01:30:02;;;;;;;8.85;4.80;;;12.60;99.90;;;;;;4123936;28;21091;-80
2021/05/27 01:32:03;;;;;;;8.40;4.22;;;12.60;99.90;;;;;;4108637;28;20169;-80
2021/05/27 01:34:07;;;;;;;9.20;4.70;;;12.60;99.90;;;;;;4108515;28;20521;-80
2021/05/27 01:36:08;;;;;;;6.38;4.43;;;12.60;99.90;;;;;;4126277;28;20103;-80
2021/05/27 01:38:13;;;;;;;8.75;4.10;;;12.60;99.90;;;;;;4124812;28;20035;-80
2021/05/27 01:40:17;;;;;;;9.75;4.40;;;12.60;99.90;;;;;;4106708;28;20043;-80
2021/05/27 01:42:18;;;;;;;4.68;3.65;;;12.60;99.90;;;;;;4108512;28;20082;-80
2021/05/27 01:44:19;;;;;;;9.23;4.18;;;12.60;99.90;;;;;;4127317;28;20054;-80
2021/05/27 01:46:19;;;;;;;6.75;3.85;;;12.60;99.90;;;;;;4124606;28;20543;-80
2021/05/27 01:48:20;;;;;;;8.95;4.25;;;12.60;99.90;;;;;;4122335;28;20060;-80
2021/05/27 01:50:21;;;;;;;12.60;5.63;;;12.60;99.90;;;;;;4120530;28;20133;-80
2021/05/27 01:52:23;;;;;;;7.28;4.25;;;12.60;99.90;;;;;;4118528;28;20031;-80
2021/05/27 01:54:24;;;;;;;9.40;4.40;;;12.50;99.90;;;;;;4119427;28;20050;-80
2021/05/27 01:56:24;;;;;;;7.47;4.68;;;12.60;99.90;;;;;;4121944;28;20421;-80
2021/05/27 01:58:25;;;;;;;10.75;5.00;;;12.60;99.90;;;;;;4118126;28;20424;-80
2021/05/27 02:00:29;;;;;;;8.85;4.72;;;12.50;99.90;;;;;;4102436;28;20416;-80
2021/05/27 02:02:29;;;;;;;12.65;4.90;;;12.50;99.90;;;;;;4120666;28;20038;-80
2021/05/27 02:04:30;;;;;;;8.60;4.50;;;12.40;99.90;;;;;;4118269;28;20089;-80
2021/05/27 02:06:31;;;;;;;8.73;4.38;;;12.40;99.90;;;;;;4120230;28;20054;-80
2021/05/27 02:08:32;;;;;;;7.95;4.40;;;12.40;99.90;;;;;;4121379;28;20070;-80
2021/05/27 02:10:32;;;;;;;12.77;4.95;;;12.40;99.90;;;;;;4104336;28;20106;-80
2021/05/27 02:12:33;;;;;;;9.43;4.90;;;12.40;99.90;;;;;;4119552;28;20061;-80
2021/05/27 02:14:35;;;;;;;15.48;5.50;;;12.40;99.90;;;;;;4122495;28;20335;-80
2021/05/27 02:16:37;;;;;;;11.85;5.32;;;12.40;99.90;;;;;;4118697;28;20042;-80
2021/05/27 02:18:37;;;;;;;9.50;5.38;;;12.40;99.90;;;;;;4103030;28;20039;-80
2021/05/27 02:20:38;;;;;;;11.88;5.75;;;12.40;99.90;;;;;;4120155;28;20042;-81
2021/05/27 02:22:39;;;;;;;9.07;5.53;;;12.40;99.90;;;;;;4101790;28;20530;-80
2021/05/27 02:24:40;;;;;;;15.43;6.40;;;12.40;99.90;;;;;;4104582;28;20142;-80
2021/05/27 02:26:40;;;;;;;10.35;6.13;;;12.40;99.90;;;;;;4119476;28;20038;-80
2021/05/27 02:28:41;;;;;;;13.57;6.55;;;12.40;99.90;;;;;;4104057;28;20491;-80
2021/05/27 02:30:41;;;;;;;13.07;6.45;;;12.40;99.90;;;;;;4138399;28;20172;-80
2021/05/27 02:32:42;;;;;;;14.75;7.05;;;12.30;99.90;;;;;;4120035;28;20034;-80
2021/05/27 02:34:43;;;;;;;12.05;6.57;;;12.40;99.90;;;;;;4118798;28;20073;-80
2021/05/27 02:36:43;;;;;;;13.38;7.47;;;12.40;99.90;;;;;;4121840;28;20031;-81
2021/05/27 02:38:44;;;;;;;12.52;7.60;;;12.30;99.90;;;;;;4102293;28;20039;-80
2021/05/27 02:40:45;;;;;;;15.63;8.80;;;12.30;99.90;;;;;;4119503;28;20057;-80
2021/05/27 02:42:46;;;;;;;18.85;10.48;;;12.30;99.90;;;;;;4104000;28;20054;-80
2021/05/27 02:44:47;;;;;;;19.35;10.60;;;12.30;99.90;;;;;;4119329;28;20439;-81
2021/05/27 02:46:49;;;;;;;23.88;12.35;;;12.20;99.90;;;;;;4117872;28;20038;-80
2021/05/27 02:48:50;;;;;;;22.55;12.70;;;12.20;99.90;;;;;;4119439;28;20027;-81
2021/05/27 02:50:51;;;;;;;23.63;13.70;;;12.20;99.90;;;;;;4119012;28;20031;-81
2021/05/27 02:52:52;;;;;;;28.90;14.13;;;12.10;99.90;;;;;;4121479;28;20035;-80
2021/05/27 02:54:53;;;;;;;22.27;12.73;;;12.20;99.90;;;;;;4118736;28;20097;-80
2021/05/27 02:56:57;;;;;;;22.92;12.18;;;12.20;99.90;;;;;;4117906;28;20462;-80
2021/05/27 02:58:58;;;;;;;21.13;11.20;;;12.20;99.90;;;;;;4103466;28;20099;-80
2021/05/27 03:01:02;;;;;;;20.45;11.75;;;12.10;99.90;;;;;;4119532;28;20091;-80
2021/05/27 03:03:05;;;;;;;21.30;12.23;;;12.10;99.90;;;;;;4117060;28;20027;-81
2021/05/27 03:05:06;;;;;;;20.95;11.20;;;12.10;99.90;;;;;;4118888;28;20038;-81
2021/05/27 03:07:06;;;;;;;21.50;10.95;;;12.10;99.90;;;;;;4101060;28;20038;-81
2021/05/27 03:09:07;;;;;;;21.83;11.73;;;12.10;99.90;;;;;;4116756;28;20034;-81
2021/05/27 03:11:09;;;;;;;20.25;10.20;;;12.10;99.90;;;;;;4101690;28;20130;-81
2021/05/27 03:13:10;;;;;;;24.60;10.20;;;12.00;99.90;;;;;;4117026;28;20032;-81
2021/05/27 03:15:11;;;;;;;19.98;11.13;;;12.10;99.90;;;;;;4118939;28;20677;-81
2021/05/27 03:17:11;;;;;;;23.38;12.15;;;12.10;99.90;;;;;;4105646;28;20039;-80
2021/05/27 03:19:12;;;;;;;24.58;11.15;;;12.00;99.90;;;;;;4121437;28;20034;-81
2021/05/27 03:21:13;;;;;;;24.00;13.13;;;12.10;99.90;;;;;;4103887;28;20404;-80
2021/05/27 03:23:14;;;;;;;27.08;12.90;;;12.00;99.90;;;;;;4120355;28;20037;-80
2021/05/27 03:25:14;;;;;;;24.30;13.10;;;12.00;99.90;;;;;;4102679;28;20090;-81
2021/05/27 03:27:15;;;;;;;31.60;14.88;;;12.00;99.90;;;;;;4120353;28;20525;-81
2021/05/27 03:29:17;;;;;;;26.38;14.40;;;12.00;99.90;;;;;;4118888;28;20594;-81
2021/05/27 03:31:18;;;;;;;23.48;14.73;;;12.00;99.90;;;;;;4122146;28;20034;-81
2021/05/27 03:33:18;;;;;;;25.08;14.23;;;12.00;99.90;;;;;;4118608;28;20041;-80
2021/05/27 03:35:20;;;;;;;27.63;15.23;;;12.00;99.90;;;;;;4102826;28;20039;-80
2021/05/27 03:37:21;;;;;;;29.73;16.02;;;11.90;99.90;;;;;;4101963;28;20046;-81
2021/05/27 03:39:21;;;;;;;30.80;16.55;;;11.90;99.90;;;;;;4123399;28;20499;-81
2021/05/27 03:41:22;;;;;;;34.97;15.73;;;11.90;99.90;;;;;;4125470;28;20046;-80
2021/05/27 03:43:22;;;;;;;28.33;15.13;;;11.90;99.90;;;;;;4121405;28;20057;-80
2021/05/27 03:45:28;;;;;;;30.50;16.60;;;11.90;99.90;;;;;;4119172;28;20065;-81
2021/05/27 03:47:28;;;;;;;29.15;15.13;;;11.80;99.90;;;;;;4121722;28;20503;-81
2021/05/27 03:49:29;;;;;;;26.95;14.40;;;11.80;99.90;;;;;;4121304;28;20164;-80
2021/05/27 03:51:30;;;;;;;35.78;16.35;;;11.80;99.90;;;;;;4120676;28;20039;-80
2021/05/27 03:53:30;;;;;;;38.97;15.88;;;11.70;99.90;;;;;;4121165;28;20031;-80
2021/05/27 03:55:31;;;;;;;29.73;15.50;;;11.70;99.90;;;;;;4120599;28;20053;-80
2021/05/27 03:57:32;;;;;;;29.30;13.90;;;11.70;99.90;;;;;;4102580;28;20232;-80
2021/05/27 04:01:52;;;;;;;25.77;12.57;;;11.70;99.90;;;;;;4119285;28;20053;-80
2021/05/27 04:08:32;;;;;;;21.05;11.82;;;11.60;99.90;;;;;;4117329;28;20044;-80
2021/05/27 04:10:33;;;;;;;25.15;13.07;;;11.60;99.90;;;;;;4117431;28;20222;-80
2021/05/27 04:12:46;;;;;;;28.48;12.75;;;11.60;99.90;;;;;;4119613;28;20155;-80
2021/05/27 04:15:20;;;;;;;;;;;11.60;99.90;;;;;;4117530;28;20045;-80
2021/05/27 04:17:09;;;;;;;37.45;14.00;;;11.60;99.90;;;;;;4118703;28;19985;-80
2021/05/27 04:19:10;;;;;;;30.30;12.73;;;11.60;99.90;;;;;;4122194;28;20324;-80
2021/05/27 04:21:10;;;;;;;37.15;13.38;;;11.60;99.90;;;;;;4109585;28;20067;-79
2021/05/27 04:23:16;;;;;;;24.70;12.63;;;11.60;99.90;;;;;;4125009;28;20026;-79
2021/05/27 04:25:18;;;;;;;28.63;13.27;;;11.50;99.90;;;;;;4125661;28;20057;-80
2021/05/27 04:27:19;;;;;;;35.38;15.10;;;11.60;99.90;;;;;;4124927;28;20070;-79
2021/05/27 04:29:19;;;;;;;23.98;13.43;;;11.60;99.90;;;;;;4125875;28;20045;-80
2021/05/27 04:31:21;;;;;;;30.27;13.95;;;11.60;99.90;;;;;;4126092;28;20038;-80
2021/05/27 04:33:21;;;;;;;36.63;16.80;;;11.60;99.90;;;;;;4109346;28;20041;-80
2021/05/27 04:35:24;;;;;;;29.45;16.15;;;11.60;99.90;;;;;;4126091;28;20062;-80
2021/05/27 04:37:25;;;;;;;31.13;14.68;;;11.60;99.90;;;;;;4126964;28;20065;-80
2021/05/27 04:39:26;;;;;;;32.42;17.40;;;11.60;99.90;;;;;;4125222;28;20125;-80
2021/05/27 04:41:26;;;;;;;32.03;18.38;;;11.60;99.90;;;;;;4109075;28;20081;-80
2021/05/27 04:43:27;;;;;;;32.67;18.17;;;11.60;99.90;;;;;;4108834;28;20387;-80
2021/05/27 04:45:29;;;;;;;31.63;17.95;;;11.60;99.90;;;;;;4125314;28;20676;-79
2021/05/27 04:47:29;;;;;;;33.72;17.38;;;11.60;99.90;;;;;;4125850;28;20088;-79
2021/05/27 04:49:30;;;;;;;34.22;16.70;;;11.60;99.90;;;;;;4126829;28;20234;-81
2021/05/27 04:51:30;;;;;;;30.85;16.90;;;11.50;99.90;;;;;;4127289;28;20086;-80
2021/05/27 04:53:31;;;;;;;27.67;15.40;;;11.60;99.90;;;;;;4125151;28;20089;-80
2021/05/27 04:55:33;;;;;;;34.72;17.85;;;11.60;99.90;;;;;;4109927;28;20462;-80
2021/05/27 04:57:34;;;;;;;30.43;16.40;;;11.50;99.90;;;;;;4109040;28;20042;-80
2021/05/27 04:59:34;;;;;;;26.17;15.93;;;11.50;99.90;;;;;;4127658;28;20289;-80
2021/05/27 05:01:35;;;;;;;31.60;16.67;;;11.50;99.90;;;;;;4124871;28;20027;-80
2021/05/27 05:03:36;;;;;;;30.02;17.38;;;11.50;99.90;;;;;;4126783;28;20050;-79
2021/05/27 05:05:37;;;;;;;27.08;15.82;;;11.50;99.90;;;;;;4127060;28;20081;-79
2021/05/27 05:07:39;;;;;;;23.67;15.07;;;11.50;99.90;;;;;;4127024;28;20031;-79
2021/05/27 05:09:40;;;;;;;30.05;16.02;;;11.50;99.90;;;;;;4106632;28;20054;-79
2021/05/27 05:11:40;;;;;;;29.45;15.65;;;11.40;99.90;;;;;;4116591;28;20042;-80
2021/05/27 05:13:41;;;;;;;31.25;17.10;;;11.50;99.90;;;;;;4116756;28;20038;-79
2021/05/27 05:15:42;;;;;;;30.50;16.80;;;11.50;99.90;;;;;;4117341;28;20110;-79
2021/05/27 05:17:46;;;;;;;27.60;15.18;;;11.50;99.90;;;;;;4120310;28;20039;-79
2021/05/27 05:19:46;;;;;;;27.67;14.82;;;11.50;99.90;;;;;;4100841;28;20218;-80
2021/05/27 05:21:47;;;;;;;24.08;15.50;;;11.50;99.90;;;;;;4116142;28;20035;-80
2021/05/27 05:23:48;;;;;;;28.92;15.88;;;11.40;99.90;;;;;;4095160;28;20126;-80
2021/05/27 05:25:49;;;;;;;29.27;15.20;;;11.50;99.90;;;;;;4102804;28;20537;-80
2021/05/27 05:27:50;;;;;;;25.95;15.35;;;11.50;99.90;;;;;;4122654;28;20089;-80
2021/05/27 05:29:51;;;;;;;28.02;15.40;;;11.50;99.90;;;;;;4122306;28;20112;-80
2021/05/27 05:31:51;;;;;;;28.67;16.65;;;11.40;99.90;;;;;;4116685;28;20067;-80
2021/05/27 05:33:55;;;;;;;34.35;17.95;;;11.50;99.90;;;;;;4121987;28;20301;-80
2021/05/27 05:35:55;;;;;;;35.53;18.33;;;11.50;99.90;;;;;;4095824;28;20487;-79
2021/05/27 05:37:56;;;;;;;27.75;17.20;;;11.50;99.90;;;;;;4097686;28;20035;-79
2021/05/27 05:39:58;;;;;;;32.08;19.10;;;11.50;99.90;;;;;;4117065;28;20027;-80
2021/05/27 05:41:59;;;;;;;32.00;17.83;;;11.40;99.90;;;;;;4119571;28;20109;-80
2021/05/27 05:44:00;;;;;;;27.92;17.20;;;11.40;99.90;;;;;;4120415;28;20100;-80
2021/05/27 05:46:00;;;;;;;25.98;16.45;;;11.40;99.90;;;;;;4116936;28;20439;-80
2021/05/27 05:48:01;;;;;;;29.60;17.88;;;11.40;99.90;;;;;;4101921;28;20035;-80
2021/05/27 05:50:03;;;;;;;33.50;16.40;;;11.50;99.90;;;;;;4120549;28;20027;-80
2021/05/27 05:52:04;;;;;;;24.65;16.95;;;11.50;99.90;;;;;;4102868;28;20047;-80
2021/05/27 05:54:04;;;;;;;24.15;16.30;;;11.50;99.90;;;;;;4120080;28;20039;-80
2021/05/27 05:56:05;;;;;;;25.45;16.58;;;11.50;99.90;;;;;;4123266;28;20065;-80
2021/05/27 05:58:06;;;;;;;28.63;15.38;;;11.40;99.90;;;;;;4120907;28;20026;-80
2021/05/27 06:00:07;;;;;;;26.75;14.15;;;11.40;99.90;;;;;;4124937;28;20109;-80
2021/05/27 06:02:09;;;;;;;30.85;15.82;;;11.40;99.90;;;;;;4119953;28;20117;-81
2021/05/27 06:04:10;;;;;;;23.90;15.07;;;11.50;99.90;;;;;;4118008;28;20046;-80
2021/05/27 06:06:11;;;;;;;29.65;16.15;;;11.40;99.90;;;;;;4114940;28;20110;-81
2021/05/27 06:08:13;;;;;;;20.95;13.90;;;11.50;99.90;;;;;;4118367;28;20487;-79
2021/05/27 06:10:13;;;;;;;22.00;14.07;;;11.50;99.90;;;;;;4119789;28;20041;-79
2021/05/27 06:12:14;;;;;;;24.95;14.00;;;11.40;99.90;;;;;;4125187;28;20034;-79
2021/05/27 06:14:23;;;;;;;21.45;13.68;;;11.40;99.90;;;;;;4125086;28;20039;-79
2021/05/27 06:16:30;;;;;;;24.67;14.68;;;11.40;99.90;;;;;;4113930;28;20034;-79
2021/05/27 06:18:31;;;;;;;19.33;12.85;;;11.40;99.90;;;;;;4119290;28;20031;-79
2021/05/27 06:20:31;;;;;;;22.10;13.55;;;11.40;99.90;;;;;;4128543;28;20042;-79
2021/05/27 06:22:33;;;;;;;23.55;14.05;;;11.40;99.90;;;;;;4124905;28;20100;-79
2021/05/27 06:24:34;;;;;;;22.48;13.38;;;11.30;99.90;;;;;;4119350;28;20105;-79
2021/05/27 06:26:38;;;;;;;24.70;13.30;;;11.40;99.90;;;;;;4123530;28;20046;-79
2021/05/27 06:28:38;;;;;;;21.40;12.43;;;11.40;99.90;;;;;;4113612;28;20043;-79
2021/05/27 06:30:39;;;;;;;23.00;13.07;;;11.50;99.90;;;;;;4117287;28;20115;-79
2021/05/27 06:32:42;;;;;;;18.50;12.65;;;11.40;99.90;;;;;;4121577;28;20041;-79
2021/05/27 06:34:52;;;;;;;19.20;11.10;;;11.40;99.90;;;;;;4119663;28;20030;-79
2021/05/27 06:36:56;;;;;;;20.35;11.88;;;11.50;99.90;;;;;;4128082;28;20101;-79
2021/05/27 06:38:57;;;;;;;18.63;11.15;;;11.40;99.90;;;;;;4109023;28;20027;-79
2021/05/27 06:41:00;;;;;;;17.15;11.40;;;11.50;99.90;;;;;;4126218;28;20042;-78
2021/05/27 06:43:01;;;;;;;;;;;11.50;99.90;;;;;;4124784;28;20833;-79
2021/05/27 06:45:04;;;;;;;20.25;10.63;;;11.50;99.90;;;;;;4127340;28;19918;-78
2021/05/27 06:47:05;;;;;;;17.48;10.02;;;11.50;99.90;;;;;;4129484;28;20593;-79
2021/05/27 06:49:05;;;;;;;20.08;11.32;;;11.50;99.90;;;;;;4110393;28;20035;-78
2021/05/27 06:51:07;;;;;;;21.00;10.38;;;11.50;99.90;;;;;;4125497;28;20050;-79
2021/05/27 06:53:12;;;;;;;14.10;8.80;;;11.50;99.90;;;;;;4129480;28;20057;-79
2021/05/27 06:55:14;;;;;;;17.38;8.93;;;11.50;99.90;;;;;;4111892;28;20037;-78
2021/05/27 06:57:16;;;;;;;15.73;8.90;;;11.40;99.90;;;;;;4123841;28;20026;-79
2021/05/27 06:59:17;;;;;;;16.88;8.68;;;11.40;99.90;;;;;;4128805;28;20681;-79
2021/05/27 07:01:18;;;;;;;15.43;8.52;;;11.50;99.90;;;;;;4127452;28;20023;-78
2021/05/27 07:03:21;;;;;;;18.98;8.98;;;11.50;99.90;;;;;;4114500;28;20027;-79
2021/05/27 07:05:24;;;;;;;21.77;9.30;;;11.50;99.90;;;;;;4121938;28;20057;-78
2021/05/27 07:07:24;;;;;;;17.63;7.97;;;11.50;99.90;;;;;;4113249;28;20093;-79
2021/05/27 07:09:25;;;;;;;19.98;9.15;;;11.50;99.90;;;;;;4128321;28;20066;-79
2021/05/27 07:11:28;;;;;;;14.75;8.27;;;11.40;99.90;;;;;;4126734;28;20050;-79
2021/05/27 07:13:28;;;;;;;;;;;11.40;99.90;;;;;;4129431;28;20058;-78
2021/05/27 07:15:36;;;;;;;16.08;7.53;;;11.40;99.90;;;;;;4126441;28;20437;-79
2021/05/27 07:17:36;;;;;;;19.77;8.15;;;11.40;99.90;;;;;;4131819;28;20046;-79
2021/05/27 07:19:37;;;;;;;20.45;7.68;;;11.40;99.90;;;;;;4130490;28;20034;-79
2021/05/27 07:21:39;;;;;;;17.33;7.55;;;11.40;99.90;;;;;;4113496;28;20034;-79
2021/05/27 07:23:41;;;;;;;19.08;7.55;;;11.40;99.90;;;;;;4125954;28;20093;-79
2021/05/27 07:25:44;;;;;;;17.52;7.63;;;11.30;99.90;;;;;;4127376;28;20541;-78
2021/05/27 07:27:49;;;;;;;17.10;7.07;;;11.40;99.90;;;;;;4129839;28;20046;-78
2021/05/27 07:29:51;;;;;;;14.93;6.80;;;11.40;99.90;;;;;;4125882;28;20402;-78
2021/05/27 07:31:57;;;;;;;19.10;7.20;;;11.40;99.90;;;;;;4126571;28;20027;-78
2021/05/27 07:33:58;;;;;;;14.20;6.95;;;11.40;99.90;;;;;;4128385;28;20038;-78
2021/05/27 07:35:59;;;;;;;14.07;6.95;;;11.40;99.90;;;;;;4111909;28;20416;-78
2021/05/27 07:38:00;;;;;;;18.42;7.05;;;11.40;99.90;;;;;;4122556;28;20041;-79
2021/05/27 07:40:02;;;;;;;14.20;7.75;;;11.50;99.90;;;;;;4134402;28;20049;-79
2021/05/27 07:42:06;;;;;;;14.67;7.20;;;11.50;99.90;;;;;;4121627;28;20504;-78
2021/05/27 07:44:06;;;;;;;17.98;8.05;;;11.50;99.90;;;;;;4124950;28;20133;-79
2021/05/27 07:46:20;;;;;;;15.85;7.55;;;11.40;99.90;;;;;;4123269;28;21549;-79
2021/05/27 07:48:21;;;;;;;14.13;7.65;;;11.40;99.90;;;;;;4123442;28;20053;-79
2021/05/27 07:50:23;;;;;;;16.38;7.72;;;11.40;99.90;;;;;;4132512;28;20121;-79
2021/05/27 07:52:24;;;;;;;13.43;7.10;;;11.40;99.90;;;;;;4129760;28;20150;-79
2021/05/27 07:54:28;;;;;;;18.05;8.15;;;11.50;99.90;;;;;;4122104;28;20129;-78
2021/05/27 07:56:28;;;;;;;13.05;7.28;;;11.50;99.90;;;;;;4130737;28;20379;-79
2021/05/27 07:58:31;;;;;;;12.68;7.25;;;11.50;99.90;;;;;;4131698;28;20038;-79
2021/05/27 08:00:33;;;;;;;24.23;8.82;;;11.50;99.90;;;;;;4125960;28;20080;-79
2021/05/27 08:02:34;;;;;;;21.35;8.60;;;11.50;99.90;;;;;;4126755;28;20041;-79
2021/05/27 08:04:36;;;;;;;15.02;7.07;;;11.50;99.90;;;;;;4124715;28;20031;-79
2021/05/27 08:06:37;;;;;;;11.40;6.45;;;11.50;99.90;;;;;;4121242;28;20517;-79
2021/05/27 08:08:45;;;;;;;15.25;7.22;;;11.50;99.90;;;;;;4122540;28;20059;-79
2021/05/27 08:10:47;;;;;;;16.10;7.35;;;11.50;99.90;;;;;;4124139;28;20070;-79
2021/05/27 08:12:47;;;;;;;14.90;6.63;;;11.50;99.90;;;;;;4120678;28;20619;-79
2021/05/27 08:14:58;;;;;;;15.20;6.30;;;11.50;99.90;;;;;;4126554;28;20038;-78
2021/05/27 08:16:59;;;;;;;16.10;6.80;;;11.50;99.90;;;;;;4127083;28;20033;-79
2021/05/27 08:19:00;;;;;;;18.75;6.55;;;11.60;99.90;;;;;;4125642;28;20035;-79
2021/05/27 08:21:00;;;;;;;16.23;7.38;;;11.60;99.90;;;;;;4130925;28;20030;-79
2021/05/27 08:23:02;;;;;;;20.08;7.50;;;11.60;99.90;;;;;;4129439;28;20310;-79
2021/05/27 08:25:05;;;;;;;13.20;6.90;;;11.60;99.90;;;;;;4119312;28;20430;-79
2021/05/27 08:27:06;;;;;;;15.32;7.60;;;11.60;99.90;;;;;;4123106;28;20109;-79
2021/05/27 08:29:07;;;;;;;14.70;6.90;;;11.60;99.90;;;;;;4130766;28;20019;-79
2021/05/27 08:31:09;;;;;;;18.80;7.35;;;11.60;99.90;;;;;;4124353;28;20122;-79
2021/05/27 08:33:10;;;;;;;;;;;11.60;99.90;;;;;;4121549;28;20379;-78
2021/05/27 08:35:13;;;;;;;19.27;7.82;;;11.60;99.90;;;;;;4124125;28;19965;-79
2021/05/27 08:37:21;;;;;;;13.18;7.10;;;11.70;99.90;;;;;;4126728;28;21126;-78
2021/05/27 08:39:22;;;;;;;16.50;7.50;;;11.70;99.90;;;;;;4125123;28;20034;-78
2021/05/27 08:41:23;;;;;;;11.25;7.13;;;11.70;99.90;;;;;;4124604;28;20027;-79
2021/05/27 08:43:24;;;;;;;14.73;7.07;;;11.60;99.90;;;;;;4126622;28;20043;-78
2021/05/27 08:45:29;;;;;;;14.48;7.30;;;11.70;99.90;;;;;;4127091;28;20045;-78
2021/05/27 08:47:32;;;;;;;15.43;7.45;;;11.60;99.90;;;;;;4119861;28;20117;-78
2021/05/27 08:49:35;;;;;;;15.75;7.30;;;11.60;99.90;;;;;;4121052;28;20645;-78
2021/05/27 08:51:36;;;;;;;22.00;8.45;;;11.60;99.90;;;;;;4126623;28;20054;-78
2021/05/27 08:53:38;;;;;;;19.08;8.40;;;11.60;99.90;;;;;;4124752;28;20041;-78
2021/05/27 08:55:41;;;;;;;14.20;8.68;;;11.60;99.90;;;;;;4122762;28;20046;-80
2021/05/27 08:57:52;;;;;;;18.05;8.63;;;11.60;99.90;;;;;;4123060;28;20030;-78
2021/05/27 08:59:53;;;;;;;16.20;8.68;;;11.60;99.90;;;;;;4123166;28;20334;-79
2021/05/27 09:02:09;;;;;;;19.80;8.82;;;11.60;99.90;;;;;;4121345;28;20119;-79
2021/05/27 09:04:22;;;;;;;17.02;8.82;;;11.60;99.90;;;;;;4123241;28;20114;-79
2021/05/27 09:06:23;;;;;;;18.60;9.98;;;11.60;99.90;;;;;;4116231;28;20157;-78
2021/05/27 09:08:30;;;;;;;18.20;8.95;;;11.60;99.90;;;;;;4129134;28;20124;-78
2021/05/27 09:10:46;;;;;;;17.33;8.57;;;11.70;99.90;;;;;;4123307;28;20038;-78
2021/05/27 09:12:47;;;;;;;15.40;8.35;;;11.70;99.90;;;;;;4103601;28;20031;-78
2021/05/27 09:15:05;;;;;;;14.55;7.75;;;11.70;99.90;;;;;;4123033;28;20076;-79
2021/05/27 09:17:08;;;;;;;14.77;8.15;;;11.70;99.90;;;;;;4109015;28;20034;-78
2021/05/27 09:19:17;;;;;;;15.55;8.10;;;11.70;99.90;;;;;;4124325;28;20616;-79
2021/05/27 09:21:37;;;;;;;12.05;6.95;;;11.70;99.90;;;;;;4127085;28;20030;-78
2021/05/27 09:23:48;;;;;;;14.98;7.72;;;11.70;99.90;;;;;;4129002;28;20669;-79
2021/05/27 09:25:51;;;;;;;15.23;7.80;;;11.80;99.90;;;;;;4122011;28;20141;-79
2021/05/27 09:27:52;;;;;;;15.73;9.15;;;11.80;99.90;;;;;;4120046;28;20039;-79
2021/05/27 09:29:59;;;;;;;13.13;7.53;;;11.80;99.90;;;;;;4112686;28;20038;-79
2021/05/27 09:32:06;;;;;;;12.43;7.55;;;11.80;99.90;;;;;;4126688;28;20046;-80
2021/05/27 09:34:10;;;;;;;17.20;7.38;;;11.80;99.90;;;;;;4122860;28;20045;-79
2021/05/27 09:36:17;;;;;;;16.67;7.47;;;11.80;99.90;;;;;;4130984;28;20106;-79
2021/05/27 09:38:31;;;;;;;14.20;7.63;;;11.90;99.90;;;;;;4128917;28;20039;-79
2021/05/27 09:40:43;;;;;;;14.57;8.00;;;11.90;99.90;;;;;;4119258;28;20038;-79
2021/05/27 09:42:48;;;;;;;23.13;10.30;;;11.80;99.90;;;;;;4117854;28;20136;-79
2021/05/27 09:44:50;;;;;;;14.65;8.52;;;11.80;99.90;;;;;;4125212;28;20038;-79
2021/05/27 09:46:54;;;;;;;13.57;8.02;;;11.80;99.90;;;;;;4119608;28;20061;-79
2021/05/27 09:49:08;;;;;;;16.85;8.27;;;11.80;99.90;;;;;;4117226;28;20050;-79
2021/05/27 09:51:09;;;;;;;12.65;7.50;;;11.90;99.90;;;;;;4126657;28;20034;-79
2021/05/27 09:53:15;;;;;;;16.27;8.30;;;11.90;99.90;;;;;;4112459;28;20035;-79
2021/05/27 09:55:19;;;;;;;13.73;6.80;;;12.00;99.90;;;;;;4118247;28;20027;-79
2021/05/27 09:57:25;;;;;;;13.35;7.35;;;12.10;99.90;;;;;;4126163;28;20085;-79
2021/05/27 09:59:37;;;;;;;13.63;7.63;;;12.10;99.90;;;;;;4111959;28;20702;-80
2021/05/27 10:01:40;;;;;;;14.48;7.82;;;12.20;99.90;;;;;;4114541;28;20037;-80
2021/05/27 10:03:41;;;;;;;18.23;7.88;;;12.30;99.90;;;;;;4127346;28;20509;-80
2021/05/27 10:05:47;;;;;;;14.60;6.50;;;12.30;99.90;;;;;;4133325;28;20034;-80
2021/05/27 10:07:52;;;;;;;15.82;7.40;;;12.30;99.90;;;;;;4131933;28;20030;-79
2021/05/27 10:09:53;;;;;;;16.35;7.00;;;12.40;99.90;;;;;;4107471;28;20031;-80
2021/05/27 10:12:08;;;;;;;12.88;6.35;;;12.40;99.90;;;;;;4130269;28;20105;-79
2021/05/27 10:14:08;;;;;;;10.93;6.47;;;12.50;99.90;;;;;;4127527;28;20038;-79
2021/05/27 10:16:18;;;;;;;11.82;6.28;;;12.50;99.90;;;;;;4130246;28;20510;-80
2021/05/27 10:18:35;;;;;;;16.45;7.93;;;12.50;99.90;;;;;;4131924;28;20125;-79
2021/05/27 10:20:38;;;;;;;11.57;6.70;;;12.50;99.90;;;;;;4107321;28;20035;-80
2021/05/27 10:22:39;;;;;;;16.00;7.22;;;12.60;99.90;;;;;;4102022;28;20110;-80
2021/05/27 10:24:55;;;;;;;17.60;6.80;;;12.40;99.90;;;;;;4126725;28;20039;-79
2021/05/27 10:26:56;;;;;;;14.25;6.60;;;12.40;99.90;;;;;;4131525;28;20038;-80
2021/05/27 10:29:01;;;;;;;10.30;5.45;;;12.40;99.90;;;;;;4108610;28;20035;-80
2021/05/27 10:31:03;;;;;;;14.38;6.30;;;12.30;99.90;;;;;;4144935;28;20041;-80
2021/05/27 10:33:06;;;;;;;12.25;5.78;;;12.30;99.90;;;;;;4130887;28;20038;-79
2021/05/27 10:35:22;;;;;;;12.43;6.28;;;12.30;99.90;;;;;;4129519;28;20037;-79